sensor_id;sensor_type;location;lat;lon;timestamp;temperature;humidity
46926;DHT22;32667;48.248;-1.700;2023-03-31T00:02:02;13.30;71.80
46926;DHT22;32667;48.248;-1.700;2023-03-31T00:04:32;13.30;71.90
46926;DHT22;32667;48.248;-1.700;2023-03-31T00:06:58;13.30;71.90
46926;DHT22;32667;48.248;-1.700;2023-03-31T00:09:24;13.30;71.90
46926;DHT22;32667;48.248;-1.700;2023-03-31T00:11:51;13.30;71.90
46926;DHT22;32667;48.248;-1.700;2023-03-31T00:14:19;13.30;71.90
46926;DHT22;32667;48.248;-1.700;2023-03-31T00:16:48;13.30;71.90
46926;DHT22;32667;48.248;-1.700;2023-03-31T00:19:13;13.40;71.90
46926;DHT22;32667;48.248;-1.700;2023-03-31T00:21:51;13.40;71.90
46926;DHT22;32667;48.248;-1.700;2023-03-31T00:24:18;13.40;71.90
46926;DHT22;32667;48.248;-1.700;2023-03-31T00:26:44;13.40;71.80
46926;DHT22;32667;48.248;-1.700;2023-03-31T00:29:12;13.40;71.80
46926;DHT22;32667;48.248;-1.700;2023-03-31T00:31:38;13.40;71.80
46926;DHT22;32667;48.248;-1.700;2023-03-31T00:34:05;13.40;71.80
46926;DHT22;32667;48.248;-1.700;2023-03-31T00:36:31;13.50;71.80
46926;DHT22;32667;48.248;-1.700;2023-03-31T00:39:03;13.50;71.80
46926;DHT22;32667;48.248;-1.700;2023-03-31T00:41:34;13.50;71.80
46926;DHT22;32667;48.248;-1.700;2023-03-31T00:44:20;13.50;71.70
46926;DHT22;32667;48.248;-1.700;2023-03-31T00:47:16;13.50;71.80
46926;DHT22;32667;48.248;-1.700;2023-03-31T00:49:48;13.50;71.80
46926;DHT22;32667;48.248;-1.700;2023-03-31T00:52:20;13.40;71.80
46926;DHT22;32667;48.248;-1.700;2023-03-31T00:54:48;13.40;71.90
46926;DHT22;32667;48.248;-1.700;2023-03-31T00:57:15;13.40;72.00
46926;DHT22;32667;48.248;-1.700;2023-03-31T00:59:51;13.40;72.00
46926;DHT22;32667;48.248;-1.700;2023-03-31T01:02:18;13.30;72.00
46926;DHT22;32667;48.248;-1.700;2023-03-31T01:04:52;13.30;72.00
46926;DHT22;32667;48.248;-1.700;2023-03-31T01:07:28;13.40;72.00
46926;DHT22;32667;48.248;-1.700;2023-03-31T01:10:00;13.40;71.90
46926;DHT22;32667;48.248;-1.700;2023-03-31T01:12:28;13.40;71.80
46926;DHT22;32667;48.248;-1.700;2023-03-31T01:14:55;13.40;71.80
46926;DHT22;32667;48.248;-1.700;2023-03-31T01:17:21;13.50;71.80
46926;DHT22;32667;48.248;-1.700;2023-03-31T01:27:45;13.50;71.60
46926;DHT22;32667;48.248;-1.700;2023-03-31T01:33:24;13.50;71.60
46926;DHT22;32667;48.248;-1.700;2023-03-31T01:41:59;13.50;72.20
46926;DHT22;32667;48.248;-1.700;2023-03-31T01:44:43;13.50;71.70
46926;DHT22;32667;48.248;-1.700;2023-03-31T01:47:18;13.40;71.70
46926;DHT22;32667;48.248;-1.700;2023-03-31T01:52:31;13.50;71.70
46926;DHT22;32667;48.248;-1.700;2023-03-31T01:55:19;13.50;71.70
46926;DHT22;32667;48.248;-1.700;2023-03-31T01:57:52;13.50;71.70
46926;DHT22;32667;48.248;-1.700;2023-03-31T02:00:24;13.40;71.70
46926;DHT22;32667;48.248;-1.700;2023-03-31T02:03:06;13.40;71.70
46926;DHT22;32667;48.248;-1.700;2023-03-31T02:05:57;13.50;71.70
46926;DHT22;32667;48.248;-1.700;2023-03-31T02:08:29;13.40;71.70
46926;DHT22;32667;48.248;-1.700;2023-03-31T02:10:56;13.40;71.70
46926;DHT22;32667;48.248;-1.700;2023-03-31T02:13:25;13.40;71.70
46926;DHT22;32667;48.248;-1.700;2023-03-31T02:15:54;13.40;71.70
46926;DHT22;32667;48.248;-1.700;2023-03-31T02:18:25;13.40;71.80
46926;DHT22;32667;48.248;-1.700;2023-03-31T02:20:53;13.40;71.80
46926;DHT22;32667;48.248;-1.700;2023-03-31T02:23:24;13.30;71.80
46926;DHT22;32667;48.248;-1.700;2023-03-31T02:26:09;13.30;71.80
46926;DHT22;32667;48.248;-1.700;2023-03-31T02:28:36;13.30;71.80
46926;DHT22;32667;48.248;-1.700;2023-03-31T02:33:47;13.30;71.90
46926;DHT22;32667;48.248;-1.700;2023-03-31T02:36:14;13.30;71.90
46926;DHT22;32667;48.248;-1.700;2023-03-31T02:38:47;13.30;71.90
46926;DHT22;32667;48.248;-1.700;2023-03-31T02:41:14;13.20;71.90
46926;DHT22;32667;48.248;-1.700;2023-03-31T02:43:40;13.20;72.50
46926;DHT22;32667;48.248;-1.700;2023-03-31T02:46:06;13.20;71.90
46926;DHT22;32667;48.248;-1.700;2023-03-31T02:48:36;13.20;71.90
46926;DHT22;32667;48.248;-1.700;2023-03-31T02:51:37;13.20;71.80
46926;DHT22;32667;48.248;-1.700;2023-03-31T02:57:16;13.10;72.00
46926;DHT22;32667;48.248;-1.700;2023-03-31T03:05:04;13.00;72.20
46926;DHT22;32667;48.248;-1.700;2023-03-31T03:13:26;13.00;72.10
46926;DHT22;32667;48.248;-1.700;2023-03-31T03:16:10;12.90;72.10
46926;DHT22;32667;48.248;-1.700;2023-03-31T03:18:38;12.80;72.20
46926;DHT22;32667;48.248;-1.700;2023-03-31T03:21:04;12.80;72.30
46926;DHT22;32667;48.248;-1.700;2023-03-31T03:23:30;12.80;72.40
46926;DHT22;32667;48.248;-1.700;2023-03-31T03:25:57;12.70;72.50
46926;DHT22;32667;48.248;-1.700;2023-03-31T03:28:23;12.70;72.60
46926;DHT22;32667;48.248;-1.700;2023-03-31T03:30:49;12.70;72.60
46926;DHT22;32667;48.248;-1.700;2023-03-31T03:33:17;12.70;72.60
46926;DHT22;32667;48.248;-1.700;2023-03-31T03:35:43;12.70;72.50
46926;DHT22;32667;48.248;-1.700;2023-03-31T03:38:09;12.70;72.40
46926;DHT22;32667;48.248;-1.700;2023-03-31T03:40:35;12.70;72.40
46926;DHT22;32667;48.248;-1.700;2023-03-31T03:43:00;12.70;72.40
46926;DHT22;32667;48.248;-1.700;2023-03-31T03:45:26;12.60;72.40
46926;DHT22;32667;48.248;-1.700;2023-03-31T03:47:52;12.60;72.60
46926;DHT22;32667;48.248;-1.700;2023-03-31T03:50:18;12.50;72.70
46926;DHT22;32667;48.248;-1.700;2023-03-31T03:52:48;12.50;72.70
46926;DHT22;32667;48.248;-1.700;2023-03-31T03:55:14;12.50;72.80
46926;DHT22;32667;48.248;-1.700;2023-03-31T03:57:42;12.40;72.80
46926;DHT22;32667;48.248;-1.700;2023-03-31T04:00:08;12.30;72.90
46926;DHT22;32667;48.248;-1.700;2023-03-31T04:02:38;12.30;73.00
46926;DHT22;32667;48.248;-1.700;2023-03-31T04:05:04;12.20;73.00
46926;DHT22;32667;48.248;-1.700;2023-03-31T04:07:30;12.20;73.00
46926;DHT22;32667;48.248;-1.700;2023-03-31T04:09:55;12.20;73.10
46926;DHT22;32667;48.248;-1.700;2023-03-31T04:12:21;12.10;73.00
46926;DHT22;32667;48.248;-1.700;2023-03-31T04:14:47;12.20;73.10
46926;DHT22;32667;48.248;-1.700;2023-03-31T04:17:12;12.20;73.00
46926;DHT22;32667;48.248;-1.700;2023-03-31T04:19:42;12.20;73.00
46926;DHT22;32667;48.248;-1.700;2023-03-31T04:22:15;12.20;72.90
46926;DHT22;32667;48.248;-1.700;2023-03-31T04:24:45;12.20;72.80
46926;DHT22;32667;48.248;-1.700;2023-03-31T04:27:11;12.20;72.80
46926;DHT22;32667;48.248;-1.700;2023-03-31T04:29:40;12.30;72.80
46926;DHT22;32667;48.248;-1.700;2023-03-31T04:32:07;12.30;72.70
46926;DHT22;32667;48.248;-1.700;2023-03-31T04:34:32;12.30;72.60
46926;DHT22;32667;48.248;-1.700;2023-03-31T04:37:01;12.30;72.50
46926;DHT22;32667;48.248;-1.700;2023-03-31T04:39:28;12.30;72.50
46926;DHT22;32667;48.248;-1.700;2023-03-31T04:41:58;12.30;72.50
46926;DHT22;32667;48.248;-1.700;2023-03-31T04:44:24;12.30;72.50
46926;DHT22;32667;48.248;-1.700;2023-03-31T04:46:52;12.30;72.60
46926;DHT22;32667;48.248;-1.700;2023-03-31T04:49:18;12.30;72.60
46926;DHT22;32667;48.248;-1.700;2023-03-31T04:51:46;12.30;72.70
46926;DHT22;32667;48.248;-1.700;2023-03-31T04:54:12;12.20;72.70
46926;DHT22;32667;48.248;-1.700;2023-03-31T04:56:40;12.20;72.70
46926;DHT22;32667;48.248;-1.700;2023-03-31T04:59:06;12.20;72.70
46926;DHT22;32667;48.248;-1.700;2023-03-31T05:01:33;12.20;72.70
46926;DHT22;32667;48.248;-1.700;2023-03-31T05:04:01;12.20;72.70
46926;DHT22;32667;48.248;-1.700;2023-03-31T05:06:27;12.20;72.70
46926;DHT22;32667;48.248;-1.700;2023-03-31T05:08:53;12.20;72.80
46926;DHT22;32667;48.248;-1.700;2023-03-31T05:11:18;12.20;72.70
46926;DHT22;32667;48.248;-1.700;2023-03-31T05:13:44;12.20;72.80
46926;DHT22;32667;48.248;-1.700;2023-03-31T05:16:11;12.20;72.70
46926;DHT22;32667;48.248;-1.700;2023-03-31T05:18:41;12.20;72.70
46926;DHT22;32667;48.248;-1.700;2023-03-31T05:21:11;12.20;72.70
46926;DHT22;32667;48.248;-1.700;2023-03-31T05:23:37;12.20;72.60
46926;DHT22;32667;48.248;-1.700;2023-03-31T05:26:03;12.30;73.00
46926;DHT22;32667;48.248;-1.700;2023-03-31T05:28:29;12.30;72.60
46926;DHT22;32667;48.248;-1.700;2023-03-31T05:30:55;12.20;72.60
46926;DHT22;32667;48.248;-1.700;2023-03-31T05:33:23;12.30;72.60
46926;DHT22;32667;48.248;-1.700;2023-03-31T05:35:49;12.30;72.60
46926;DHT22;32667;48.248;-1.700;2023-03-31T05:38:14;12.30;73.10
46926;DHT22;32667;48.248;-1.700;2023-03-31T05:40:42;12.30;72.40
46926;DHT22;32667;48.248;-1.700;2023-03-31T05:43:11;12.30;72.40
46926;DHT22;32667;48.248;-1.700;2023-03-31T05:45:37;12.40;72.40
46926;DHT22;32667;48.248;-1.700;2023-03-31T05:48:03;12.40;72.40
46926;DHT22;32667;48.248;-1.700;2023-03-31T05:50:29;12.40;72.40
46926;DHT22;32667;48.248;-1.700;2023-03-31T05:52:55;12.40;72.30
46926;DHT22;32667;48.248;-1.700;2023-03-31T05:55:22;12.40;72.30
46926;DHT22;32667;48.248;-1.700;2023-03-31T05:57:48;12.40;72.30
46926;DHT22;32667;48.248;-1.700;2023-03-31T06:00:14;12.40;72.30
46926;DHT22;32667;48.248;-1.700;2023-03-31T06:02:40;12.40;72.30
46926;DHT22;32667;48.248;-1.700;2023-03-31T06:05:06;12.40;72.30
46926;DHT22;32667;48.248;-1.700;2023-03-31T06:07:32;12.40;72.30
46926;DHT22;32667;48.248;-1.700;2023-03-31T06:09:57;12.40;72.30
46926;DHT22;32667;48.248;-1.700;2023-03-31T06:12:25;12.40;72.40
46926;DHT22;32667;48.248;-1.700;2023-03-31T06:14:51;12.40;72.40
46926;DHT22;32667;48.248;-1.700;2023-03-31T06:17:17;12.40;72.40
46926;DHT22;32667;48.248;-1.700;2023-03-31T06:19:43;12.40;72.40
46926;DHT22;32667;48.248;-1.700;2023-03-31T06:22:08;12.30;72.40
46926;DHT22;32667;48.248;-1.700;2023-03-31T06:24:36;12.30;72.50
46926;DHT22;32667;48.248;-1.700;2023-03-31T06:27:02;12.30;72.50
46926;DHT22;32667;48.248;-1.700;2023-03-31T06:29:28;12.30;72.50
46926;DHT22;32667;48.248;-1.700;2023-03-31T06:31:54;12.30;72.50
46926;DHT22;32667;48.248;-1.700;2023-03-31T06:34:20;12.30;72.50
46926;DHT22;32667;48.248;-1.700;2023-03-31T06:36:48;12.30;72.60
46926;DHT22;32667;48.248;-1.700;2023-03-31T06:39:16;12.30;72.60
46926;DHT22;32667;48.248;-1.700;2023-03-31T06:41:42;12.30;72.50
46926;DHT22;32667;48.248;-1.700;2023-03-31T06:44:07;12.30;72.50
46926;DHT22;32667;48.248;-1.700;2023-03-31T06:46:33;12.30;72.50
46926;DHT22;32667;48.248;-1.700;2023-03-31T06:48:59;12.30;72.50
46926;DHT22;32667;48.248;-1.700;2023-03-31T06:51:25;12.30;72.40
46926;DHT22;32667;48.248;-1.700;2023-03-31T06:53:50;12.30;72.40
46926;DHT22;32667;48.248;-1.700;2023-03-31T06:56:18;12.40;72.40
46926;DHT22;32667;48.248;-1.700;2023-03-31T06:58:44;12.40;72.40
46926;DHT22;32667;48.248;-1.700;2023-03-31T07:01:10;12.40;72.40
46926;DHT22;32667;48.248;-1.700;2023-03-31T07:03:36;12.40;72.40
46926;DHT22;32667;48.248;-1.700;2023-03-31T07:06:01;12.40;72.40
46926;DHT22;32667;48.248;-1.700;2023-03-31T07:08:27;12.40;72.30
46926;DHT22;32667;48.248;-1.700;2023-03-31T07:10:57;12.50;72.30
46926;DHT22;32667;48.248;-1.700;2023-03-31T07:13:24;12.50;72.30
46926;DHT22;32667;48.248;-1.700;2023-03-31T07:15:50;12.40;72.30
46926;DHT22;32667;48.248;-1.700;2023-03-31T07:18:17;12.30;72.30
46926;DHT22;32667;48.248;-1.700;2023-03-31T07:20:46;12.30;72.50
46926;DHT22;32667;48.248;-1.700;2023-03-31T07:23:12;12.30;72.60
46926;DHT22;32667;48.248;-1.700;2023-03-31T07:25:38;12.30;72.70
46926;DHT22;32667;48.248;-1.700;2023-03-31T07:28:06;12.30;72.60
46926;DHT22;32667;48.248;-1.700;2023-03-31T07:30:32;12.30;72.60
46926;DHT22;32667;48.248;-1.700;2023-03-31T07:33:01;12.30;72.60
46926;DHT22;32667;48.248;-1.700;2023-03-31T07:35:29;12.30;72.60
46926;DHT22;32667;48.248;-1.700;2023-03-31T07:37:57;12.30;72.60
46926;DHT22;32667;48.248;-1.700;2023-03-31T07:40:25;12.30;72.50
46926;DHT22;32667;48.248;-1.700;2023-03-31T07:42:52;12.40;72.40
46926;DHT22;32667;48.248;-1.700;2023-03-31T07:45:20;12.40;72.30
46926;DHT22;32667;48.248;-1.700;2023-03-31T07:47:47;12.40;72.30
46926;DHT22;32667;48.248;-1.700;2023-03-31T07:50:13;12.50;72.30
46926;DHT22;32667;48.248;-1.700;2023-03-31T07:52:40;12.50;72.20
46926;DHT22;32667;48.248;-1.700;2023-03-31T07:55:06;12.50;72.30
46926;DHT22;32667;48.248;-1.700;2023-03-31T07:57:33;12.50;72.20
46926;DHT22;32667;48.248;-1.700;2023-03-31T07:59:59;12.50;72.20
46926;DHT22;32667;48.248;-1.700;2023-03-31T08:02:25;12.60;72.20
46926;DHT22;32667;48.248;-1.700;2023-03-31T08:04:50;12.60;72.00
46926;DHT22;32667;48.248;-1.700;2023-03-31T08:07:16;12.70;72.00
46926;DHT22;32667;48.248;-1.700;2023-03-31T08:09:44;12.70;72.00
46926;DHT22;32667;48.248;-1.700;2023-03-31T08:12:11;12.70;71.90
46926;DHT22;32667;48.248;-1.700;2023-03-31T08:14:36;12.80;71.90
46926;DHT22;32667;48.248;-1.700;2023-03-31T08:17:02;12.80;71.90
46926;DHT22;32667;48.248;-1.700;2023-03-31T08:19:28;12.80;71.90
46926;DHT22;32667;48.248;-1.700;2023-03-31T08:21:56;12.80;71.90
46926;DHT22;32667;48.248;-1.700;2023-03-31T08:24:22;12.70;71.90
46926;DHT22;32667;48.248;-1.700;2023-03-31T08:26:48;12.70;72.10
46926;DHT22;32667;48.248;-1.700;2023-03-31T08:29:14;12.70;72.10
46926;DHT22;32667;48.248;-1.700;2023-03-31T08:31:40;12.60;72.10
46926;DHT22;32667;48.248;-1.700;2023-03-31T08:34:07;12.60;72.30
46926;DHT22;32667;48.248;-1.700;2023-03-31T08:36:33;12.60;72.30
46926;DHT22;32667;48.248;-1.700;2023-03-31T08:38:59;12.60;72.40
46926;DHT22;32667;48.248;-1.700;2023-03-31T08:41:55;12.50;72.40
46926;DHT22;32667;48.248;-1.700;2023-03-31T08:44:50;12.50;72.40
46926;DHT22;32667;48.248;-1.700;2023-03-31T08:47:20;12.50;72.40
46926;DHT22;32667;48.248;-1.700;2023-03-31T08:49:56;12.50;72.40
46926;DHT22;32667;48.248;-1.700;2023-03-31T08:52:28;12.50;72.30
46926;DHT22;32667;48.248;-1.700;2023-03-31T08:54:57;12.50;72.20
46926;DHT22;32667;48.248;-1.700;2023-03-31T09:00:18;12.60;72.20
46926;DHT22;32667;48.248;-1.700;2023-03-31T09:03:06;12.60;72.20
46926;DHT22;32667;48.248;-1.700;2023-03-31T09:11:24;12.90;71.90
46926;DHT22;32667;48.248;-1.700;2023-03-31T09:14:29;12.90;71.70
46926;DHT22;32667;48.248;-1.700;2023-03-31T09:19:51;13.10;71.50
46926;DHT22;32667;48.248;-1.700;2023-03-31T09:22:33;13.10;71.40
46926;DHT22;32667;48.248;-1.700;2023-03-31T09:25:18;13.20;71.40
46926;DHT22;32667;48.248;-1.700;2023-03-31T09:27:47;13.20;71.30
46926;DHT22;32667;48.248;-1.700;2023-03-31T09:30:27;13.30;71.30
46926;DHT22;32667;48.248;-1.700;2023-03-31T09:33:10;13.30;71.10
46926;DHT22;32667;48.248;-1.700;2023-03-31T09:35:36;13.40;71.10
46926;DHT22;32667;48.248;-1.700;2023-03-31T09:38:02;13.50;71.10
46926;DHT22;32667;48.248;-1.700;2023-03-31T09:40:30;13.50;71.00
46926;DHT22;32667;48.248;-1.700;2023-03-31T09:43:00;13.60;70.80
46926;DHT22;32667;48.248;-1.700;2023-03-31T09:45:29;13.70;70.90
46926;DHT22;32667;48.248;-1.700;2023-03-31T09:48:04;13.70;70.90
46926;DHT22;32667;48.248;-1.700;2023-03-31T09:50:39;13.70;70.90
46926;DHT22;32667;48.248;-1.700;2023-03-31T09:53:24;13.70;70.90
46926;DHT22;32667;48.248;-1.700;2023-03-31T09:55:55;13.70;70.90
46926;DHT22;32667;48.248;-1.700;2023-03-31T09:58:25;13.70;71.00
46926;DHT22;32667;48.248;-1.700;2023-03-31T10:01:03;13.60;71.10
46926;DHT22;32667;48.248;-1.700;2023-03-31T10:03:31;13.60;71.20
46926;DHT22;32667;48.248;-1.700;2023-03-31T10:06:23;13.50;71.30
46926;DHT22;32667;48.248;-1.700;2023-03-31T10:08:56;13.50;71.40
46926;DHT22;32667;48.248;-1.700;2023-03-31T10:11:23;13.30;71.70
46926;DHT22;32667;48.248;-1.700;2023-03-31T10:16:48;13.10;72.10
46926;DHT22;32667;48.248;-1.700;2023-03-31T10:19:24;13.20;72.20
46926;DHT22;32667;48.248;-1.700;2023-03-31T10:24:38;13.20;72.00
46926;DHT22;32667;48.248;-1.700;2023-03-31T10:27:12;13.30;71.90
46926;DHT22;32667;48.248;-1.700;2023-03-31T10:29:46;13.30;71.80
46926;DHT22;32667;48.248;-1.700;2023-03-31T10:34:56;13.30;71.70
46926;DHT22;32667;48.248;-1.700;2023-03-31T10:37:25;13.50;71.70
46926;DHT22;32667;48.248;-1.700;2023-03-31T10:40:14;13.50;71.50
46926;DHT22;32667;48.248;-1.700;2023-03-31T10:42:43;13.60;71.40
46926;DHT22;32667;48.248;-1.700;2023-03-31T10:45:11;13.60;71.20
46926;DHT22;32667;48.248;-1.700;2023-03-31T10:47:39;13.70;71.20
46926;DHT22;32667;48.248;-1.700;2023-03-31T10:50:13;13.80;71.10
46926;DHT22;32667;48.248;-1.700;2023-03-31T10:52:47;13.90;71.00
46926;DHT22;32667;48.248;-1.700;2023-03-31T10:55:22;14.00;71.00
46926;DHT22;32667;48.248;-1.700;2023-03-31T11:15:54;14.30;70.40
46926;DHT22;32667;48.248;-1.700;2023-03-31T11:18:39;14.20;70.60
46926;DHT22;32667;48.248;-1.700;2023-03-31T11:21:21;14.00;70.90
46926;DHT22;32667;48.248;-1.700;2023-03-31T11:30:00;13.90;71.30
46926;DHT22;32667;48.248;-1.700;2023-03-31T11:32:41;13.90;71.30
46926;DHT22;32667;48.248;-1.700;2023-03-31T11:35:17;13.90;71.30
46926;DHT22;32667;48.248;-1.700;2023-03-31T11:43:10;14.00;71.30
46926;DHT22;32667;48.248;-1.700;2023-03-31T11:45:46;14.10;71.10
46926;DHT22;32667;48.248;-1.700;2023-03-31T11:54:12;14.60;70.40
46926;DHT22;32667;48.248;-1.700;2023-03-31T11:56:41;14.80;70.10
46926;DHT22;32667;48.248;-1.700;2023-03-31T11:59:12;14.90;69.90
46926;DHT22;32667;48.248;-1.700;2023-03-31T12:01:57;14.90;69.80
46926;DHT22;32667;48.248;-1.700;2023-03-31T12:07:30;14.80;70.10
46926;DHT22;32667;48.248;-1.700;2023-03-31T12:12:52;14.30;70.90
46926;DHT22;32667;48.248;-1.700;2023-03-31T12:15:47;14.10;71.30
46926;DHT22;32667;48.248;-1.700;2023-03-31T12:18:17;14.00;71.60
46926;DHT22;32667;48.248;-1.700;2023-03-31T12:20:50;14.10;71.60
46926;DHT22;32667;48.248;-1.700;2023-03-31T12:23:42;14.20;71.40
46926;DHT22;32667;48.248;-1.700;2023-03-31T12:28:58;14.60;70.80
46926;DHT22;32667;48.248;-1.700;2023-03-31T12:31:27;14.60;70.50
46926;DHT22;32667;48.248;-1.700;2023-03-31T12:33:59;14.70;70.40
46926;DHT22;32667;48.248;-1.700;2023-03-31T12:40:09;15.00;70.10
46926;DHT22;32667;48.248;-1.700;2023-03-31T12:43:06;15.10;70.00
46926;DHT22;32667;48.248;-1.700;2023-03-31T12:45:35;15.10;69.90
46926;DHT22;32667;48.248;-1.700;2023-03-31T12:48:38;15.30;69.80
46926;DHT22;32667;48.248;-1.700;2023-03-31T12:54:05;15.50;69.50
46926;DHT22;32667;48.248;-1.700;2023-03-31T12:59:35;15.90;69.20
46926;DHT22;32667;48.248;-1.700;2023-03-31T13:02:22;16.00;68.80
46926;DHT22;32667;48.248;-1.700;2023-03-31T13:04:51;16.20;68.70
46926;DHT22;32667;48.248;-1.700;2023-03-31T13:09:56;16.30;68.50
46926;DHT22;32667;48.248;-1.700;2023-03-31T13:12:25;16.30;68.60
46926;DHT22;32667;48.248;-1.700;2023-03-31T13:14:55;16.10;69.00
46926;DHT22;32667;48.248;-1.700;2023-03-31T13:17:34;15.90;69.30
46926;DHT22;32667;48.248;-1.700;2023-03-31T13:20:29;15.60;69.80
46926;DHT22;32667;48.248;-1.700;2023-03-31T13:23:05;15.30;70.40
46926;DHT22;32667;48.248;-1.700;2023-03-31T13:25:38;15.10;70.90
46926;DHT22;32667;48.248;-1.700;2023-03-31T13:31:02;14.60;71.60
46926;DHT22;32667;48.248;-1.700;2023-03-31T13:33:40;14.30;71.90
46926;DHT22;32667;48.248;-1.700;2023-03-31T13:44:25;14.10;72.50
46926;DHT22;32667;48.248;-1.700;2023-03-31T13:49:50;14.60;71.60
46926;DHT22;32667;48.248;-1.700;2023-03-31T14:06:56;14.70;71.10
46926;DHT22;32667;48.248;-1.700;2023-03-31T14:09:35;14.90;71.00
46926;DHT22;32667;48.248;-1.700;2023-03-31T14:14:52;15.30;70.40
46926;DHT22;32667;48.248;-1.700;2023-03-31T14:17:23;15.40;70.00
46926;DHT22;32667;48.248;-1.700;2023-03-31T14:31:18;15.30;70.30
46926;DHT22;32667;48.248;-1.700;2023-03-31T14:39:11;15.30;70.40
46926;DHT22;32667;48.248;-1.700;2023-03-31T14:41:38;15.50;70.30
46926;DHT22;32667;48.248;-1.700;2023-03-31T14:44:10;15.50;70.10
46926;DHT22;32667;48.248;-1.700;2023-03-31T14:46:38;15.40;70.20
46926;DHT22;32667;48.248;-1.700;2023-03-31T14:49:23;15.30;70.30
46926;DHT22;32667;48.248;-1.700;2023-03-31T14:51:51;15.20;70.60
46926;DHT22;32667;48.248;-1.700;2023-03-31T14:54:19;15.20;70.70
46926;DHT22;32667;48.248;-1.700;2023-03-31T14:56:50;15.20;70.70
46926;DHT22;32667;48.248;-1.700;2023-03-31T14:59:27;15.20;70.60
46926;DHT22;32667;48.248;-1.700;2023-03-31T15:02:03;15.20;70.70
46926;DHT22;32667;48.248;-1.700;2023-03-31T15:04:38;15.20;70.70
46926;DHT22;32667;48.248;-1.700;2023-03-31T15:07:10;15.10;70.80
46926;DHT22;32667;48.248;-1.700;2023-03-31T15:09:36;15.10;70.90
46926;DHT22;32667;48.248;-1.700;2023-03-31T15:12:09;15.10;71.00
46926;DHT22;32667;48.248;-1.700;2023-03-31T15:14:49;15.30;71.00
46926;DHT22;32667;48.248;-1.700;2023-03-31T15:17:28;15.40;70.50
46926;DHT22;32667;48.248;-1.700;2023-03-31T15:20:00;15.50;70.80
46926;DHT22;32667;48.248;-1.700;2023-03-31T15:22:29;15.50;70.20
46926;DHT22;32667;48.248;-1.700;2023-03-31T15:24:58;15.50;70.20
46926;DHT22;32667;48.248;-1.700;2023-03-31T15:27:33;15.40;70.80
46926;DHT22;32667;48.248;-1.700;2023-03-31T15:30:03;15.30;70.40
46926;DHT22;32667;48.248;-1.700;2023-03-31T15:32:37;14.90;70.80
46926;DHT22;32667;48.248;-1.700;2023-03-31T15:35:05;14.70;71.40
46926;DHT22;32667;48.248;-1.700;2023-03-31T15:37:41;14.50;71.80
46926;DHT22;32667;48.248;-1.700;2023-03-31T15:40:26;14.40;72.20
46926;DHT22;32667;48.248;-1.700;2023-03-31T15:42:56;14.30;72.20
46926;DHT22;32667;48.248;-1.700;2023-03-31T15:53:55;14.40;71.80
46926;DHT22;32667;48.248;-1.700;2023-03-31T15:56:36;14.30;71.70
46926;DHT22;32667;48.248;-1.700;2023-03-31T15:59:06;14.30;71.60
46926;DHT22;32667;48.248;-1.700;2023-03-31T16:01:47;14.30;71.60
46926;DHT22;32667;48.248;-1.700;2023-03-31T16:04:16;14.30;71.70
46926;DHT22;32667;48.248;-1.700;2023-03-31T16:09:18;14.30;71.60
46926;DHT22;32667;48.248;-1.700;2023-03-31T16:11:59;14.30;71.50
46926;DHT22;32667;48.248;-1.700;2023-03-31T16:14:38;14.30;71.50
46926;DHT22;32667;48.248;-1.700;2023-03-31T16:17:12;14.20;71.60
46926;DHT22;32667;48.248;-1.700;2023-03-31T16:19:49;14.10;71.60
46926;DHT22;32667;48.248;-1.700;2023-03-31T16:22:20;13.90;71.80
46926;DHT22;32667;48.248;-1.700;2023-03-31T16:24:47;13.70;72.80
46926;DHT22;32667;48.248;-1.700;2023-03-31T16:27:16;13.70;72.50
46926;DHT22;32667;48.248;-1.700;2023-03-31T16:29:42;13.70;72.50
46926;DHT22;32667;48.248;-1.700;2023-03-31T16:32:14;13.70;72.40
46926;DHT22;32667;48.248;-1.700;2023-03-31T16:34:57;13.70;72.20
46926;DHT22;32667;48.248;-1.700;2023-03-31T16:37:24;13.80;72.20
46926;DHT22;32667;48.248;-1.700;2023-03-31T16:39:52;13.80;72.00
46926;DHT22;32667;48.248;-1.700;2023-03-31T16:42:18;13.90;71.80
46926;DHT22;32667;48.248;-1.700;2023-03-31T16:44:45;13.90;71.60
46926;DHT22;32667;48.248;-1.700;2023-03-31T16:47:14;13.90;71.60
46926;DHT22;32667;48.248;-1.700;2023-03-31T16:49:45;13.90;71.70
46926;DHT22;32667;48.248;-1.700;2023-03-31T16:52:11;13.90;71.70
46926;DHT22;32667;48.248;-1.700;2023-03-31T16:54:39;13.90;71.80
46926;DHT22;32667;48.248;-1.700;2023-03-31T16:57:07;13.90;71.80
46926;DHT22;32667;48.248;-1.700;2023-03-31T16:59:33;13.80;71.80
46926;DHT22;32667;48.248;-1.700;2023-03-31T17:01:59;13.80;71.90
46926;DHT22;32667;48.248;-1.700;2023-03-31T17:04:25;13.80;71.90
46926;DHT22;32667;48.248;-1.700;2023-03-31T17:06:52;13.80;72.00
46926;DHT22;32667;48.248;-1.700;2023-03-31T17:09:18;13.80;72.00
46926;DHT22;32667;48.248;-1.700;2023-03-31T17:11:46;13.80;72.50
46926;DHT22;32667;48.248;-1.700;2023-03-31T17:14:14;13.80;71.90
46926;DHT22;32667;48.248;-1.700;2023-03-31T17:16:40;13.80;71.90
46926;DHT22;32667;48.248;-1.700;2023-03-31T17:19:15;13.90;71.90
46926;DHT22;32667;48.248;-1.700;2023-03-31T17:21:41;13.90;71.70
46926;DHT22;32667;48.248;-1.700;2023-03-31T17:24:09;13.90;71.60
46926;DHT22;32667;48.248;-1.700;2023-03-31T17:26:35;13.90;71.70
46926;DHT22;32667;48.248;-1.700;2023-03-31T17:29:03;13.90;71.70
46926;DHT22;32667;48.248;-1.700;2023-03-31T17:31:37;13.90;71.60
46926;DHT22;32667;48.248;-1.700;2023-03-31T17:34:05;13.90;71.70
46926;DHT22;32667;48.248;-1.700;2023-03-31T17:36:31;13.80;71.60
46926;DHT22;32667;48.248;-1.700;2023-03-31T17:38:57;13.80;71.70
46926;DHT22;32667;48.248;-1.700;2023-03-31T17:41:24;13.80;71.80
46926;DHT22;32667;48.248;-1.700;2023-03-31T17:43:52;13.60;71.90
46926;DHT22;32667;48.248;-1.700;2023-03-31T17:46:17;13.60;72.10
46926;DHT22;32667;48.248;-1.700;2023-03-31T17:48:46;13.60;72.20
46926;DHT22;32667;48.248;-1.700;2023-03-31T17:51:18;13.50;72.20
46926;DHT22;32667;48.248;-1.700;2023-03-31T17:53:47;13.50;72.30
46926;DHT22;32667;48.248;-1.700;2023-03-31T17:56:14;13.50;72.30
46926;DHT22;32667;48.248;-1.700;2023-03-31T17:58:40;13.50;72.20
46926;DHT22;32667;48.248;-1.700;2023-03-31T18:01:11;13.40;72.20
46926;DHT22;32667;48.248;-1.700;2023-03-31T18:03:38;13.40;72.20
46926;DHT22;32667;48.248;-1.700;2023-03-31T18:06:05;13.40;72.30
46926;DHT22;32667;48.248;-1.700;2023-03-31T18:08:35;13.30;72.30
46926;DHT22;32667;48.248;-1.700;2023-03-31T18:11:01;13.30;72.30
46926;DHT22;32667;48.248;-1.700;2023-03-31T18:13:27;13.30;72.40
46926;DHT22;32667;48.248;-1.700;2023-03-31T18:15:53;13.30;72.40
46926;DHT22;32667;48.248;-1.700;2023-03-31T18:18:19;13.20;72.30
46926;DHT22;32667;48.248;-1.700;2023-03-31T18:20:48;13.20;72.20
46926;DHT22;32667;48.248;-1.700;2023-03-31T18:23:14;13.20;72.30
46926;DHT22;32667;48.248;-1.700;2023-03-31T18:25:43;13.20;72.30
46926;DHT22;32667;48.248;-1.700;2023-03-31T18:28:12;13.20;72.90